createdAt,value
2023-04-13T00:00:33.013Z,99393.41
2023-04-13T00:03:00.481Z,99389.84
2023-04-13T00:05:28.194Z,99394.88
2023-04-13T00:07:55.526Z,99392.19
2023-04-13T00:10:23.064Z,99385.25
2023-04-13T00:12:50.066Z,99387.09
2023-04-13T00:15:19.702Z,99388.56
2023-04-13T00:17:47.473Z,99373.97
2023-04-13T00:20:15.168Z,99375.56
2023-04-13T00:22:43.137Z,99376.25
2023-04-13T00:25:11.661Z,99367.78
2023-04-13T00:27:42.353Z,99370.44
2023-04-13T00:30:14.577Z,99370.44
2023-04-13T00:32:43.002Z,99365.47
2023-04-13T00:35:11.660Z,99371.63
2023-04-13T00:37:39.787Z,99364.25
2023-04-13T00:40:08.219Z,99374.69
2023-04-13T00:42:35.142Z,99375.81
2023-04-13T00:45:01.690Z,99374.53
2023-04-13T00:47:32.203Z,99358.72
2023-04-13T00:50:02.048Z,99355.31
2023-04-13T00:52:29.085Z,99351.06
2023-04-13T00:54:58.107Z,99369.59
2023-04-13T00:57:25.383Z,99361.06
2023-04-13T00:59:52.796Z,99368.38
2023-04-13T01:02:25.748Z,99361.00
2023-04-13T01:04:56.254Z,99365.25
2023-04-13T01:07:47.576Z,99359.09
2023-04-13T01:10:39.335Z,99361.34
2023-04-13T01:13:18.824Z,99348.66
2023-04-13T01:15:53.732Z,99354.84
2023-04-13T01:18:21.000Z,99346.41
2023-04-13T01:20:49.072Z,99358.31
2023-04-13T01:23:28.493Z,99362.13
2023-04-13T01:25:57.889Z,99364.03
2023-04-13T01:28:26.198Z,99366.28
2023-04-13T01:30:53.864Z,99366.75
2023-04-13T01:33:21.639Z,99367.09
2023-04-13T01:35:49.650Z,99357.09
2023-04-13T01:38:16.179Z,99354.06
2023-04-13T01:40:44.216Z,99359.88
2023-04-13T01:43:11.159Z,99374.09
2023-04-13T01:46:00.945Z,99362.19
2023-04-13T01:48:30.614Z,99369.13
2023-04-13T01:51:11.470Z,99379.91
2023-04-13T01:53:42.539Z,99394.94
2023-04-13T01:56:09.594Z,99387.31
2023-04-13T01:58:37.812Z,99390.00
2023-04-13T02:01:07.779Z,99393.81
2023-04-13T02:03:36.140Z,99400.31
2023-04-13T02:06:03.172Z,99409.91
2023-04-13T02:08:33.418Z,99418.31
2023-04-13T02:11:00.983Z,99429.09
2023-04-13T02:13:27.595Z,99421.81
2023-04-13T02:15:54.102Z,99425.28
2023-04-13T02:18:20.900Z,99412.16
2023-04-13T02:20:47.438Z,99426.78
2023-04-13T02:23:17.941Z,99425.28
2023-04-13T02:25:47.191Z,99426.47
2023-04-13T02:28:15.942Z,99429.94
2023-04-13T02:30:42.487Z,99450.81
2023-04-13T02:33:09.515Z,99446.19
2023-04-13T02:35:38.739Z,99452.72
2023-04-13T02:38:06.665Z,99451.94
2023-04-13T02:40:33.146Z,99473.03
2023-04-13T02:43:00.107Z,99479.13
2023-04-13T02:45:27.150Z,99475.50
2023-04-13T02:47:53.780Z,99473.88
2023-04-13T02:50:20.738Z,99494.81
2023-04-13T02:52:47.203Z,99472.03
2023-04-13T02:55:13.730Z,99485.78
2023-04-13T02:57:42.351Z,99494.09
2023-04-13T03:00:10.456Z,99505.91
2023-04-13T03:02:40.323Z,99502.34
2023-04-13T03:05:07.127Z,99504.97
2023-04-13T03:07:33.953Z,99515.94
2023-04-13T03:10:08.917Z,99508.22
2023-04-13T03:12:35.481Z,99520.09
2023-04-13T03:15:02.355Z,99518.13
2023-04-13T03:17:32.453Z,99515.75
2023-04-13T03:19:59.716Z,99524.94
2023-04-13T03:22:30.409Z,99536.94
2023-04-13T03:24:56.953Z,99532.09
2023-04-13T03:27:23.512Z,99543.41
2023-04-13T03:29:50.000Z,99538.09
2023-04-13T03:32:16.520Z,99539.66
2023-04-13T03:34:44.439Z,99541.16
2023-04-13T03:37:11.723Z,99542.19
2023-04-13T03:39:41.503Z,99552.81
2023-04-13T03:42:08.037Z,99556.28
2023-04-13T03:44:34.554Z,99551.97
2023-04-13T03:47:01.468Z,99557.34
2023-04-13T03:49:30.266Z,99550.41
2023-04-13T03:51:57.624Z,99551.25
2023-04-13T03:54:24.119Z,99561.81
2023-04-13T03:56:51.016Z,99560.78
2023-04-13T03:59:17.762Z,99565.03
2023-04-13T04:01:44.263Z,99576.56
2023-04-13T04:04:10.871Z,99582.31
2023-04-13T04:06:37.331Z,99589.16
2023-04-13T04:09:04.694Z,99592.06
2023-04-13T04:11:31.131Z,99588.50
2023-04-13T04:13:57.812Z,99592.31
2023-04-13T04:16:24.590Z,99598.06
2023-04-13T04:18:51.443Z,99597.25
2023-04-13T04:21:21.642Z,99602.63
2023-04-13T04:23:48.476Z,99604.22
2023-04-13T04:26:14.992Z,99607.16
2023-04-13T04:28:41.840Z,99617.47
2023-04-13T04:31:11.755Z,99618.25
2023-04-13T04:33:41.147Z,99617.47
2023-04-13T04:36:10.136Z,99629.78
2023-04-13T04:38:36.676Z,99623.28
2023-04-13T04:41:03.236Z,99624.41
2023-04-13T04:43:30.353Z,99629.78
2023-04-13T04:45:58.154Z,99630.16
2023-04-13T04:48:31.471Z,99638.56
2023-04-13T04:50:58.154Z,99648.84
2023-04-13T04:53:24.799Z,99652.31
2023-04-13T04:55:51.557Z,99650.88
2023-04-13T04:58:19.646Z,99646.38
2023-04-13T05:00:47.917Z,99657.25
2023-04-13T05:03:14.636Z,99658.81
2023-04-13T05:05:41.440Z,99656.56
2023-04-13T05:08:08.663Z,99667.91
2023-04-13T05:10:35.547Z,99663.75
2023-04-13T05:13:02.284Z,99660.78
2023-04-13T05:15:28.725Z,99664.38
2023-04-13T05:17:56.551Z,99666.47
2023-04-13T05:20:23.092Z,99671.25
2023-04-13T05:22:49.659Z,99675.97
2023-04-13T05:25:16.227Z,99673.38
2023-04-13T05:27:42.682Z,99674.56
2023-04-13T05:30:09.788Z,99670.88
2023-04-13T05:32:36.443Z,99683.28
2023-04-13T05:35:04.455Z,99688.78
2023-04-13T05:37:31.238Z,99687.84
2023-04-13T05:39:58.477Z,99689.13
2023-04-13T05:42:25.227Z,99704.50
2023-04-13T05:44:52.784Z,99707.22
2023-04-13T05:47:23.120Z,99709.81
2023-04-13T05:49:50.167Z,99705.13
2023-04-13T05:52:16.711Z,99717.03
2023-04-13T05:54:43.185Z,99730.50
2023-04-13T05:57:09.686Z,99737.88
2023-04-13T05:59:36.814Z,99742.50
2023-04-13T06:02:03.569Z,99743.16
2023-04-13T06:04:31.199Z,99759.22
2023-04-13T06:06:57.835Z,99761.84
2023-04-13T06:09:24.432Z,99764.84
2023-04-13T06:11:50.911Z,99779.78
2023-04-13T06:14:17.724Z,99775.88
2023-04-13T06:16:44.331Z,99762.00
2023-04-13T06:19:12.413Z,99762.78
2023-04-13T06:21:38.837Z,99766.59
2023-04-13T06:24:05.739Z,99767.69
2023-04-13T06:26:33.235Z,99774.31
2023-04-13T06:29:00.024Z,99776.44
2023-04-13T06:31:27.973Z,99797.16
2023-04-13T06:33:55.384Z,99794.75
2023-04-13T06:36:21.998Z,99798.78
2023-04-13T06:38:48.453Z,99814.06
2023-04-13T06:41:14.893Z,99800.94
2023-04-13T06:43:41.387Z,99797.91
2023-04-13T06:46:07.934Z,99808.34
2023-04-13T06:48:34.474Z,99813.47
2023-04-13T06:51:01.110Z,99817.41
2023-04-13T06:53:27.617Z,99808.97
2023-04-13T06:55:54.109Z,99820.53
2023-04-13T06:58:22.438Z,99831.31
2023-04-13T07:00:48.939Z,99824.00
2023-04-13T07:03:15.847Z,99823.22
2023-04-13T07:05:43.530Z,99834.44
2023-04-13T07:08:09.963Z,99826.78
2023-04-13T07:10:39.255Z,99838.13
2023-04-13T07:13:05.807Z,99839.47
2023-04-13T07:15:32.567Z,99841.81
2023-04-13T07:17:59.080Z,99857.75
2023-04-13T07:20:25.822Z,99859.31
2023-04-13T07:22:52.368Z,99855.13
2023-04-13T07:25:19.025Z,99853.66
2023-04-13T07:27:45.477Z,99852.31
2023-04-13T07:30:12.277Z,99861.38
2023-04-13T07:32:38.824Z,99855.63
2023-04-13T07:35:05.717Z,99851.13
2023-04-13T07:37:32.160Z,99865.56
2023-04-13T07:39:58.618Z,99854.84
2023-04-13T07:42:25.333Z,99876.16
2023-04-13T07:44:56.051Z,99878.88
2023-04-13T07:47:22.705Z,99879.19
2023-04-13T07:49:49.323Z,99885.38
2023-04-13T07:52:15.814Z,99888.94
2023-04-13T07:54:42.369Z,99911.50
2023-04-13T07:57:08.835Z,99915.41
2023-04-13T07:59:35.313Z,99920.47
2023-04-13T08:02:01.906Z,99926.59
2023-04-13T08:04:28.510Z,99927.84
2023-04-13T08:06:55.318Z,99931.84
2023-04-13T08:09:21.840Z,99923.91
2023-04-13T08:11:49.816Z,99920.69
2023-04-13T08:14:16.678Z,99940.56
2023-04-13T08:16:43.192Z,99932.44
2023-04-13T08:19:09.642Z,99940.59
2023-04-13T08:21:38.585Z,99941.00
2023-04-13T08:24:05.503Z,99954.16
2023-04-13T08:26:31.996Z,99959.66
2023-04-13T08:28:58.869Z,99962.41
2023-04-13T08:31:25.650Z,99966.69
2023-04-13T08:33:52.232Z,99962.00
2023-04-13T08:36:18.783Z,99973.03
2023-04-13T08:38:45.399Z,99979.38
2023-04-13T08:41:12.254Z,99987.75
2023-04-13T08:43:39.342Z,99996.06
2023-04-13T08:46:06.526Z,99996.06
2023-04-13T08:48:52.836Z,99978.81
2023-04-13T08:51:22.285Z,100003.63
2023-04-13T08:53:49.262Z,100020.56
2023-04-13T08:56:16.584Z,100009.44
2023-04-13T08:58:45.131Z,100013.56
2023-04-13T09:01:13.545Z,100014.06
2023-04-13T09:04:06.522Z,100056.88
2023-04-13T09:06:37.514Z,100039.38
2023-04-13T09:09:07.528Z,100053.94
2023-04-13T09:11:34.057Z,100056.28
2023-04-13T09:14:01.257Z,100063.31
2023-04-13T09:16:28.049Z,100068.31
2023-04-13T09:18:56.844Z,100057.34
2023-04-13T09:21:35.794Z,100065.34
2023-04-13T09:24:02.643Z,100064.16
2023-04-13T09:26:39.707Z,100077.00
2023-04-13T09:29:08.996Z,100072.25
2023-04-13T09:31:38.606Z,100068.91
2023-04-13T09:34:06.481Z,100068.84
2023-04-13T09:36:33.407Z,100091.66
2023-04-13T09:39:00.288Z,100102.16
2023-04-13T09:41:36.497Z,100108.13
2023-04-13T09:44:20.749Z,100112.84
2023-04-13T09:46:58.146Z,100109.91
2023-04-13T09:49:25.784Z,100114.53
2023-04-13T09:51:54.398Z,100110.88
2023-04-13T09:54:22.058Z,100135.59
2023-04-13T09:56:54.623Z,100128.19
2023-04-13T09:59:23.454Z,100113.22
2023-04-13T10:01:51.228Z,100143.72
2023-04-13T10:04:18.189Z,100147.56
2023-04-13T10:06:45.664Z,100136.44
2023-04-13T10:09:12.908Z,100142.34
2023-04-13T10:11:51.044Z,100139.63
2023-04-13T10:14:21.810Z,100158.66
2023-04-13T10:17:17.490Z,100157.53
2023-04-13T10:19:47.555Z,100168.00
2023-04-13T10:22:15.610Z,100174.03
2023-04-13T10:24:43.284Z,100180.22
2023-04-13T10:27:28.341Z,100191.16
2023-04-13T10:29:55.184Z,100190.59
2023-04-13T10:32:27.722Z,100187.59
2023-04-13T10:34:55.389Z,100209.97
2023-04-13T10:37:27.362Z,100194.34
2023-04-13T10:40:08.883Z,100207.41
2023-04-13T10:42:52.448Z,100225.81
2023-04-13T10:45:24.268Z,100240.66
2023-04-13T10:47:50.989Z,100230.94
2023-04-13T10:50:19.249Z,100225.03
2023-04-13T10:53:00.296Z,100228.88
2023-04-13T10:55:27.499Z,100248.19
2023-04-13T10:57:56.366Z,100240.84
2023-04-13T11:00:34.753Z,100259.94
2023-04-13T11:03:11.379Z,100278.88
2023-04-13T11:05:38.461Z,100264.38
2023-04-13T11:08:05.581Z,100279.91
2023-04-13T11:10:32.558Z,100282.16
2023-04-13T11:12:59.167Z,100288.59
2023-04-13T11:15:30.139Z,100282.47
2023-04-13T11:17:58.333Z,100289.41
2023-04-13T11:20:35.627Z,100276.59
2023-04-13T11:23:06.082Z,100275.91
2023-04-13T11:25:36.192Z,100279.22
2023-04-13T11:28:04.309Z,100294.34
2023-04-13T11:30:32.638Z,100292.72
2023-04-13T11:33:01.051Z,100294.47
2023-04-13T11:35:28.058Z,100315.09
2023-04-13T11:37:56.193Z,100305.00
2023-04-13T11:40:25.611Z,100309.28
2023-04-13T11:42:54.509Z,100299.09
2023-04-13T11:45:25.497Z,100310.63
2023-04-13T11:47:52.594Z,100308.03
2023-04-13T11:50:20.556Z,100327.16
2023-04-13T11:52:49.135Z,100333.00
2023-04-13T11:55:23.209Z,100309.72
2023-04-13T11:57:51.091Z,100311.75
2023-04-13T12:00:24.076Z,100311.59
2023-04-13T12:03:02.051Z,100318.31
2023-04-13T12:05:32.338Z,100314.56
2023-04-13T12:08:00.621Z,100336.91
2023-04-13T12:10:39.413Z,100337.69
2023-04-13T12:16:02.234Z,100333.31
2023-04-13T12:18:37.511Z,100353.19
2023-04-13T12:21:05.884Z,100345.63
2023-04-13T12:23:32.982Z,100355.63
2023-04-13T12:26:25.448Z,100363.78
2023-04-13T12:28:54.146Z,100367.16
2023-04-13T12:31:20.739Z,100348.69
2023-04-13T12:33:47.328Z,100360.50
2023-04-13T12:36:13.880Z,100346.94
2023-04-13T12:38:40.731Z,100355.50
2023-04-13T12:41:10.020Z,100352.94
2023-04-13T12:43:36.557Z,100370.69
2023-04-13T12:46:03.179Z,100373.06
2023-04-13T12:48:30.832Z,100371.94
2023-04-13T12:50:57.453Z,100375.63
2023-04-13T12:53:24.062Z,100390.97
2023-04-13T12:55:50.836Z,100387.75
2023-04-13T12:58:17.367Z,100386.72
2023-04-13T13:00:43.912Z,100382.53
2023-04-13T13:03:14.692Z,100382.25
2023-04-13T13:05:41.930Z,100387.22
2023-04-13T13:08:09.171Z,100384.50
2023-04-13T13:10:37.344Z,100391.25
2023-04-13T13:13:04.139Z,100393.72
2023-04-13T13:15:32.502Z,100405.94
2023-04-13T13:18:02.989Z,100407.75
2023-04-13T13:20:29.940Z,100401.66
2023-04-13T13:22:56.444Z,100406.16
2023-04-13T13:25:22.999Z,100408.00
2023-04-13T13:30:18.958Z,100437.53
2023-04-13T13:32:45.555Z,100427.91
2023-04-13T13:35:14.689Z,100420.66
2023-04-13T13:37:41.220Z,100434.34
2023-04-13T13:40:13.953Z,100425.75
2023-04-13T13:42:51.192Z,100428.19
2023-04-13T13:45:18.713Z,100424.69
2023-04-13T13:47:53.413Z,100437.25
2023-04-13T13:50:21.703Z,100442.50
2023-04-13T13:53:02.263Z,100444.13
2023-04-13T13:55:30.890Z,100435.41
2023-04-13T13:57:57.706Z,100434.53
2023-04-13T14:00:24.555Z,100443.50
2023-04-13T14:02:51.592Z,100439.66
2023-04-13T14:05:18.296Z,100441.72
2023-04-13T14:07:45.725Z,100436.66
2023-04-13T14:10:13.304Z,100451.25
2023-04-13T14:12:41.324Z,100444.69
2023-04-13T14:15:09.266Z,100446.41
2023-04-13T14:17:36.939Z,100451.81
2023-04-13T14:20:11.003Z,100455.66
2023-04-13T14:22:38.771Z,100480.28
2023-04-13T14:25:07.084Z,100473.28
2023-04-13T14:27:33.806Z,100459.75
2023-04-13T14:30:01.912Z,100474.41
2023-04-13T14:32:29.016Z,100486.41
2023-04-13T14:35:00.134Z,100481.22
2023-04-13T14:37:27.859Z,100476.03
2023-04-13T14:39:55.029Z,100466.06
2023-04-13T14:42:24.142Z,100478.41
2023-04-13T14:44:52.000Z,100473.97
2023-04-13T14:47:19.585Z,100478.16
2023-04-13T14:49:47.564Z,100485.75
2023-04-13T14:52:14.584Z,100478.16
2023-04-13T14:54:41.978Z,100484.72
2023-04-13T14:57:09.863Z,100484.44
2023-04-13T14:59:37.339Z,100479.19
2023-04-13T15:02:04.272Z,100494.50
2023-04-13T15:04:31.381Z,100485.38
2023-04-13T15:06:58.765Z,100497.72
2023-04-13T15:09:25.604Z,100499.06
2023-04-13T15:11:52.537Z,100524.84
2023-04-13T15:14:19.203Z,100517.38
2023-04-13T15:16:45.984Z,100509.00
2023-04-13T15:19:12.852Z,100513.28
2023-04-13T15:21:39.344Z,100535.81
2023-04-13T15:24:06.594Z,100528.41
2023-04-13T15:26:39.286Z,100529.28
2023-04-13T15:29:06.590Z,100522.84
2023-04-13T15:31:36.329Z,100525.78
2023-04-13T15:34:05.509Z,100534.56
2023-04-13T15:36:32.158Z,100533.25
2023-04-13T15:38:59.100Z,100528.38
2023-04-13T15:41:27.529Z,100522.19
2023-04-13T15:43:55.747Z,100531.78
2023-04-13T15:46:22.330Z,100547.50
2023-04-13T15:48:50.354Z,100531.00
2023-04-13T15:51:16.949Z,100542.03
2023-04-13T15:53:43.403Z,100542.00
2023-04-13T15:56:10.179Z,100549.63
2023-04-13T15:58:36.848Z,100546.03
2023-04-13T16:01:06.090Z,100542.22
2023-04-13T16:03:34.162Z,100552.88
2023-04-13T16:06:01.694Z,100546.34
2023-04-13T16:08:29.005Z,100547.97
2023-04-13T16:10:55.661Z,100541.41
2023-04-13T16:13:22.574Z,100544.72
2023-04-13T16:15:57.119Z,100545.94
2023-04-13T16:18:32.337Z,100550.50
2023-04-13T16:21:02.325Z,100551.91
2023-04-13T16:23:30.129Z,100546.03
2023-04-13T16:25:56.619Z,100563.34
2023-04-13T16:28:23.305Z,100560.25
2023-04-13T16:30:49.946Z,100570.31
2023-04-13T16:33:16.625Z,100571.84
2023-04-13T16:35:43.190Z,100562.28
2023-04-13T16:38:09.829Z,100561.88
2023-04-13T16:40:36.400Z,100559.13
2023-04-13T16:43:05.249Z,100571.44
2023-04-13T16:45:32.450Z,100573.19
2023-04-13T16:47:59.117Z,100569.13
2023-04-13T16:50:31.489Z,100577.91
2023-04-13T16:52:59.014Z,100573.78
2023-04-13T16:55:28.123Z,100576.38
2023-04-13T16:57:55.428Z,100581.81
2023-04-13T17:00:22.750Z,100579.09
2023-04-13T17:02:49.468Z,100582.72
2023-04-13T17:05:16.265Z,100579.38
2023-04-13T17:07:44.164Z,100583.69
2023-04-13T17:10:12.856Z,100581.09
2023-04-13T17:12:39.508Z,100579.09
2023-04-13T17:15:06.759Z,100592.63
2023-04-13T17:17:34.653Z,100587.72
2023-04-13T17:20:01.639Z,100589.16
2023-04-13T17:22:28.309Z,100595.28
2023-04-13T17:24:55.523Z,100594.66
2023-04-13T17:27:22.109Z,100603.00
2023-04-13T17:29:49.716Z,100612.16
2023-04-13T17:32:16.580Z,100606.78
2023-04-13T17:34:44.634Z,100606.00
2023-04-13T17:37:11.822Z,100604.75
2023-04-13T17:39:42.171Z,100610.22
2023-04-13T17:42:09.627Z,100613.59
2023-04-13T17:44:36.298Z,100608.91
2023-04-13T17:47:02.872Z,100616.44
2023-04-13T17:49:29.624Z,100617.41
2023-04-13T17:51:58.527Z,100628.13
2023-04-13T17:54:26.218Z,100625.00
2023-04-13T17:56:53.468Z,100636.28
2023-04-13T17:59:19.939Z,100634.84
2023-04-13T18:01:46.483Z,100637.16
2023-04-13T18:04:14.622Z,100635.72
2023-04-13T18:06:41.468Z,100637.00
2023-04-13T18:09:17.095Z,100644.72
2023-04-13T18:11:44.081Z,100641.63
2023-04-13T18:14:13.046Z,100651.72
2023-04-13T18:16:39.710Z,100653.31
2023-04-13T18:19:06.349Z,100657.38
2023-04-13T18:21:32.913Z,100659.19
2023-04-13T18:24:02.923Z,100667.94
2023-04-13T18:26:29.722Z,100671.03
2023-04-13T18:28:56.228Z,100673.13
2023-04-13T18:31:22.803Z,100671.94
2023-04-13T18:33:49.428Z,100666.97
2023-04-13T18:36:19.282Z,100680.00
2023-04-13T18:38:46.132Z,100676.09
2023-04-13T18:41:13.073Z,100680.91
2023-04-13T18:43:39.729Z,100687.66
2023-04-13T18:46:07.577Z,100688.13
2023-04-13T18:48:34.541Z,100688.63
2023-04-13T18:51:01.896Z,100705.34
2023-04-13T18:53:28.486Z,100706.72
2023-04-13T18:55:55.053Z,100703.03
2023-04-13T18:58:21.591Z,100710.81
2023-04-13T19:00:48.400Z,100716.13
2023-04-13T19:03:15.176Z,100723.38
2023-04-13T19:05:41.777Z,100721.72
2023-04-13T19:08:13.240Z,100731.47
2023-04-13T19:10:39.806Z,100730.56
2023-04-13T19:13:06.335Z,100733.84
2023-04-13T19:15:33.118Z,100740.19
2023-04-13T19:18:01.219Z,100757.13
2023-04-13T19:20:27.903Z,100757.47
2023-04-13T19:22:54.370Z,100756.69
2023-04-13T19:25:21.134Z,100759.25
2023-04-13T19:27:50.084Z,100765.81
2023-04-13T19:30:18.492Z,100771.69
2023-04-13T19:32:46.776Z,100778.56
2023-04-13T19:35:13.830Z,100787.59
2023-04-13T19:37:41.669Z,100789.41
2023-04-13T19:40:15.676Z,100790.56
2023-04-13T19:42:43.626Z,100802.16
2023-04-13T19:45:11.449Z,100810.16
2023-04-13T19:47:39.325Z,100816.41
2023-04-13T19:50:08.406Z,100822.38
2023-04-13T19:52:34.980Z,100824.72
2023-04-13T19:55:01.609Z,100839.59
2023-04-13T19:57:28.652Z,100831.94
2023-04-13T19:59:55.358Z,100833.28
2023-04-13T20:02:21.992Z,100838.03
2023-04-13T20:04:52.124Z,100817.94
2023-04-13T20:07:18.834Z,100817.28
2023-04-13T20:09:45.783Z,100804.75
2023-04-13T20:12:12.561Z,100804.75
2023-04-13T20:14:41.759Z,100812.09
2023-04-13T20:17:09.106Z,100804.53
2023-04-13T20:19:36.501Z,100815.38
2023-04-13T20:22:04.720Z,100806.13
2023-04-13T20:24:31.733Z,100815.03
2023-04-13T20:26:58.898Z,100815.38
2023-04-13T20:29:27.272Z,100827.75
2023-04-13T20:31:54.713Z,100828.19
2023-04-13T20:34:21.880Z,100835.75
2023-04-13T20:36:48.481Z,100835.84
2023-04-13T20:39:18.355Z,100830.72
2023-04-13T20:41:55.029Z,100834.22
2023-04-13T20:44:25.804Z,100836.38
2023-04-13T20:46:55.960Z,100849.41
2023-04-13T20:49:24.082Z,100842.94
2023-04-13T20:51:55.849Z,100855.56
2023-04-13T20:54:23.313Z,100845.53
2023-04-13T20:56:49.879Z,100847.34
2023-04-13T20:59:18.096Z,100847.09
2023-04-13T21:01:45.130Z,100842.81
2023-04-13T21:04:11.919Z,100850.31
2023-04-13T21:06:38.425Z,100851.50
2023-04-13T21:09:05.676Z,100846.78
2023-04-13T21:11:32.186Z,100855.66
2023-04-13T21:13:58.842Z,100862.72
2023-04-13T21:16:26.166Z,100858.91
2023-04-13T21:18:54.052Z,100871.00
2023-04-13T21:21:23.302Z,100872.28
2023-04-13T21:23:53.333Z,100875.19
2023-04-13T21:26:20.561Z,100879.53
2023-04-13T21:28:47.058Z,100878.13
2023-04-13T21:31:13.542Z,100876.56
2023-04-13T21:33:40.206Z,100875.44
2023-04-13T21:38:44.126Z,100871.84
2023-04-13T21:41:18.292Z,100872.69
2023-04-13T21:43:45.332Z,100876.50
2023-04-13T21:46:13.016Z,100867.78
2023-04-13T21:48:39.888Z,100877.22
2023-04-13T21:51:07.822Z,100872.41
2023-04-13T21:53:35.753Z,100873.84
2023-04-13T21:56:03.137Z,100877.22
2023-04-13T21:58:40.320Z,100868.03
2023-04-13T22:01:07.541Z,100872.47
2023-04-13T22:03:38.772Z,100864.38
2023-04-13T22:06:08.218Z,100879.00
2023-04-13T22:08:34.821Z,100872.16
2023-04-13T22:11:01.828Z,100872.03
2023-04-13T22:13:28.754Z,100880.00
2023-04-13T22:15:55.568Z,100874.31
2023-04-13T22:18:22.617Z,100882.88
2023-04-13T22:20:49.242Z,100876.72
2023-04-13T22:23:15.975Z,100874.34
2023-04-13T22:25:42.553Z,100872.28
2023-04-13T22:28:09.084Z,100876.09
2023-04-13T22:30:38.640Z,100880.22
2023-04-13T22:33:05.143Z,100884.84
2023-04-13T22:35:34.381Z,100869.56
2023-04-13T22:38:02.712Z,100874.97
2023-04-13T22:40:29.158Z,100875.47
2023-04-13T22:42:55.795Z,100871.81
2023-04-13T22:45:22.331Z,100876.09
2023-04-13T22:47:53.394Z,100878.00
2023-04-13T22:50:20.558Z,100881.38
2023-04-13T22:52:47.045Z,100869.94
2023-04-13T22:55:13.632Z,100867.25
2023-04-13T22:57:40.047Z,100880.25
2023-04-13T23:00:07.082Z,100872.34
2023-04-13T23:02:33.736Z,100873.47
2023-04-13T23:05:00.585Z,100871.09
2023-04-13T23:07:27.207Z,100867.47
2023-04-13T23:09:53.642Z,100867.13
2023-04-13T23:12:20.191Z,100878.06
2023-04-13T23:14:46.653Z,100870.94
2023-04-13T23:17:13.136Z,100877.28
2023-04-13T23:19:39.570Z,100869.84
2023-04-13T23:22:06.090Z,100870.63
2023-04-13T23:24:32.542Z,100871.72
2023-04-13T23:26:59.047Z,100870.63
2023-04-13T23:29:25.699Z,100879.97
2023-04-13T23:31:56.204Z,100873.97
2023-04-13T23:34:23.297Z,100883.00
2023-04-13T23:36:49.802Z,100877.28
2023-04-13T23:39:17.079Z,100887.78
2023-04-13T23:41:43.559Z,100885.88
2023-04-13T23:44:10.327Z,100886.50
2023-04-13T23:46:37.123Z,100889.66
2023-04-13T23:49:03.545Z,100883.47
2023-04-13T23:51:31.167Z,100884.28
2023-04-13T23:53:57.686Z,100887.78
2023-04-13T23:56:24.163Z,100895.69
2023-04-13T23:58:50.750Z,100888.72
